White Butte, South Dakota
Current Conditions -  °F | °C
As of 11:53 PM on Saturday 22 Nov 2014 (Local Time) from KHEI Reporting Station
Clear Clear  
Wind Chill: 28°   Ceiling: Unl
Heat Index: 38°   Visibility: 10mi
Dew Point: 28°   Wind: 20mph
Humidity: 68%   Direction: 290°WNW
Pressure: 29.45"   Gusts: 26mph
Location:  45.8079°N, 102.334°W
Report Text: KHEI 230653Z AUTO 29017G23KT 10SM CLR 03/M02 A2945 RMK AO2 SLP986 T00331022 400611072
Loading
Personal Weather Stations






























Interactive Weather Map New forecast layout! Learn more

10-Day Weather Forecast

Advertisements
Track Severe Weather on mobile